createdAt,value
2023-11-30T00:01:11.058Z,34.65
2023-11-30T00:03:38.748Z,22.25
2023-11-30T00:06:06.574Z,31.00
2023-11-30T00:08:34.100Z,29.88
2023-11-30T00:11:01.618Z,8.25
2023-11-30T00:13:29.327Z,24.17
2023-11-30T00:15:56.796Z,19.27
2023-11-30T00:18:24.364Z,26.65
2023-11-30T00:20:51.987Z,33.28
2023-11-30T00:23:19.516Z,26.20
2023-11-30T00:25:49.271Z,26.05
2023-11-30T00:28:16.706Z,43.72
2023-11-30T00:30:44.236Z,33.35
2023-11-30T00:33:11.762Z,25.13
2023-11-30T00:35:39.342Z,30.35
2023-11-30T00:38:06.749Z,42.13
2023-11-30T00:40:34.264Z,42.95
2023-11-30T00:43:02.055Z,26.38
2023-11-30T00:45:30.262Z,19.20
2023-11-30T00:48:00.229Z,29.33
2023-11-30T00:50:27.893Z,23.35
2023-11-30T00:52:55.311Z,35.55
2023-11-30T00:55:22.848Z,35.20
2023-11-30T00:57:52.795Z,43.67
2023-11-30T01:00:20.450Z,50.50
2023-11-30T01:02:47.928Z,39.20
2023-11-30T01:05:15.420Z,30.17
2023-11-30T01:07:42.886Z,31.58
2023-11-30T01:10:12.767Z,9.20
2023-11-30T01:12:40.262Z,2.55
2023-11-30T01:15:08.213Z,13.75
2023-11-30T01:17:35.796Z,10.38
2023-11-30T01:20:03.323Z,4.55
2023-11-30T01:22:30.800Z,0.85
2023-11-30T01:24:58.241Z,2.80
2023-11-30T01:27:25.786Z,13.27
2023-11-30T01:29:53.273Z,2.30
2023-11-30T01:32:20.800Z,3.10
2023-11-30T01:34:48.276Z,17.25
2023-11-30T01:37:15.891Z,29.05
2023-11-30T01:39:43.365Z,26.67
2023-11-30T01:42:10.922Z,36.25
2023-11-30T01:44:39.453Z,24.70
2023-11-30T01:47:09.779Z,24.83
2023-11-30T01:49:37.314Z,27.48
2023-11-30T01:52:04.898Z,26.17
2023-11-30T01:54:32.575Z,33.40
2023-11-30T01:57:01.066Z,38.65
2023-11-30T01:59:28.846Z,38.33
2023-11-30T02:01:56.429Z,26.75
2023-11-30T02:04:24.237Z,29.50
2023-11-30T02:06:51.705Z,27.88
2023-11-30T02:09:19.234Z,40.92
2023-11-30T02:11:46.926Z,33.45
2023-11-30T02:14:14.388Z,33.88
2023-11-30T02:16:44.186Z,35.65
2023-11-30T02:19:14.504Z,25.65
2023-11-30T02:21:47.207Z,32.78
2023-11-30T02:24:14.741Z,29.50
2023-11-30T02:26:42.230Z,37.13
2023-11-30T02:29:09.654Z,23.48
2023-11-30T02:31:37.116Z,28.98
2023-11-30T02:34:04.710Z,28.95
2023-11-30T02:36:32.210Z,22.08
2023-11-30T02:38:59.684Z,29.83
2023-11-30T02:41:27.269Z,20.77
2023-11-30T02:43:55.699Z,15.90
2023-11-30T02:46:23.250Z,21.58
2023-11-30T02:48:50.875Z,27.02
2023-11-30T02:51:18.494Z,31.55
2023-11-30T02:53:46.135Z,32.03
2023-11-30T02:56:13.641Z,35.55
2023-11-30T02:58:41.059Z,22.75
2023-11-30T03:01:08.520Z,29.55
2023-11-30T03:03:38.327Z,18.02
2023-11-30T03:06:11.384Z,20.17
2023-11-30T03:08:41.774Z,27.20
2023-11-30T03:11:11.561Z,32.20
2023-11-30T03:13:39.008Z,25.13
2023-11-30T03:16:06.585Z,26.48
2023-11-30T03:18:40.576Z,41.45
2023-11-30T03:21:16.246Z,29.83
2023-11-30T03:23:43.773Z,34.83
2023-11-30T03:26:11.223Z,21.67
2023-11-30T03:28:38.908Z,19.50
2023-11-30T03:31:06.596Z,21.42
2023-11-30T03:33:34.179Z,31.38
2023-11-30T03:36:01.744Z,30.15
2023-11-30T03:38:29.242Z,26.20
2023-11-30T03:40:56.764Z,26.90
2023-11-30T03:43:27.597Z,30.17
2023-11-30T03:45:55.106Z,33.67
2023-11-30T03:48:22.744Z,24.48
2023-11-30T03:50:50.263Z,22.80
2023-11-30T03:53:17.822Z,41.00
2023-11-30T03:55:45.309Z,17.13
2023-11-30T03:58:12.767Z,30.02
2023-11-30T04:00:40.417Z,20.02
2023-11-30T04:03:07.895Z,24.38
2023-11-30T04:05:35.582Z,44.80
2023-11-30T04:08:03.052Z,27.88
2023-11-30T04:10:30.453Z,47.38
2023-11-30T04:12:57.987Z,35.15
2023-11-30T04:15:25.516Z,27.83
2023-11-30T04:17:53.012Z,32.60
2023-11-30T04:20:22.954Z,45.05
2023-11-30T04:22:50.513Z,35.63
2023-11-30T04:25:18.054Z,32.35
2023-11-30T04:27:45.569Z,34.70
2023-11-30T04:30:13.165Z,10.35
2023-11-30T04:32:40.610Z,50.17
2023-11-30T04:35:08.321Z,47.92
2023-11-30T04:37:35.850Z,32.28
2023-11-30T04:40:03.400Z,28.60
2023-11-30T04:42:30.898Z,34.28
2023-11-30T04:44:58.532Z,37.00
2023-11-30T04:47:28.761Z,35.78
2023-11-30T04:49:56.828Z,43.50
2023-11-30T04:52:25.105Z,26.33
2023-11-30T04:54:52.618Z,33.13
2023-11-30T04:57:22.506Z,42.38
2023-11-30T04:59:52.575Z,31.73
2023-11-30T05:02:20.191Z,36.67
2023-11-30T05:04:47.830Z,24.77
2023-11-30T05:07:15.406Z,46.78
2023-11-30T05:09:42.836Z,20.83
2023-11-30T05:12:10.400Z,20.38
2023-11-30T05:14:40.345Z,35.92
2023-11-30T05:17:07.810Z,25.55
2023-11-30T05:19:35.266Z,38.97
2023-11-30T05:22:05.285Z,37.63
2023-11-30T05:24:32.840Z,26.60
2023-11-30T05:27:00.362Z,16.17
2023-11-30T05:29:27.912Z,23.98
2023-11-30T05:31:55.754Z,29.73
2023-11-30T05:34:23.165Z,22.17
2023-11-30T05:36:53.055Z,14.23
2023-11-30T05:39:20.495Z,9.27
2023-11-30T05:41:48.413Z,40.65
2023-11-30T05:44:18.263Z,29.70
2023-11-30T05:46:48.075Z,22.25
2023-11-30T05:49:15.877Z,19.10
2023-11-30T05:51:43.613Z,7.70
2023-11-30T05:54:11.703Z,7.90
2023-11-30T05:56:42.508Z,11.40
2023-11-30T05:59:10.158Z,11.38
2023-11-30T06:01:37.661Z,9.60
2023-11-30T06:04:05.387Z,11.50
2023-11-30T06:06:35.216Z,10.75
2023-11-30T06:09:02.744Z,24.90
2023-11-30T06:11:30.274Z,11.48
2023-11-30T06:13:57.981Z,6.95
2023-11-30T06:16:25.402Z,4.70
2023-11-30T06:18:52.855Z,11.90
2023-11-30T06:21:20.372Z,18.95
2023-11-30T06:23:47.839Z,15.35
2023-11-30T06:26:15.273Z,23.35
2023-11-30T06:28:42.749Z,7.22
2023-11-30T06:31:10.743Z,10.73
2023-11-30T06:33:38.197Z,12.40
2023-11-30T06:36:05.992Z,31.00
2023-11-30T06:38:33.594Z,23.10
2023-11-30T06:41:01.537Z,36.28
2023-11-30T06:43:30.213Z,23.70
2023-11-30T06:45:57.683Z,32.20
2023-11-30T06:48:26.776Z,27.42
2023-11-30T06:50:54.324Z,29.35
2023-11-30T06:53:21.894Z,33.75
2023-11-30T06:55:49.326Z,42.97
2023-11-30T06:58:19.004Z,23.92
2023-11-30T07:00:46.597Z,42.55
2023-11-30T07:03:14.497Z,30.70
2023-11-30T07:05:42.175Z,35.78
2023-11-30T07:08:12.581Z,44.83
2023-11-30T07:10:43.416Z,26.02
2023-11-30T07:13:10.904Z,9.32
2023-11-30T07:15:41.076Z,15.80
2023-11-30T07:18:10.395Z,43.95
2023-11-30T07:20:38.236Z,26.52
2023-11-30T07:23:06.185Z,52.35
2023-11-30T07:25:33.678Z,44.85
2023-11-30T07:28:01.156Z,42.13
2023-11-30T07:30:28.679Z,34.42
2023-11-30T07:32:56.275Z,35.83
2023-11-30T07:35:23.997Z,36.15
2023-11-30T07:37:51.510Z,48.92
2023-11-30T07:40:19.762Z,34.85
2023-11-30T07:42:47.216Z,42.90
2023-11-30T07:45:15.368Z,41.53
2023-11-30T07:47:42.876Z,53.97
2023-11-30T07:50:10.535Z,68.40
2023-11-30T07:52:38.834Z,37.53
2023-11-30T07:55:06.550Z,49.53
2023-11-30T07:57:34.239Z,55.83
2023-11-30T08:00:03.969Z,42.72
2023-11-30T08:02:31.565Z,36.10
2023-11-30T08:05:03.064Z,38.83
2023-11-30T08:07:30.648Z,35.05
2023-11-30T08:09:58.622Z,40.95
2023-11-30T08:12:26.114Z,46.72
2023-11-30T08:14:56.192Z,32.10
2023-11-30T08:17:23.752Z,30.20
2023-11-30T08:19:52.381Z,39.13
2023-11-30T08:22:19.928Z,38.08
2023-11-30T08:24:47.584Z,32.40
2023-11-30T08:27:15.060Z,35.45
2023-11-30T08:29:45.422Z,39.55
2023-11-30T08:32:14.531Z,20.00
2023-11-30T08:34:41.997Z,25.30
2023-11-30T08:37:09.500Z,35.17
2023-11-30T08:39:37.136Z,40.00
2023-11-30T08:42:05.199Z,24.45
2023-11-30T08:44:36.382Z,28.90
2023-11-30T08:47:04.033Z,28.90
2023-11-30T08:49:31.485Z,45.70
2023-11-30T08:52:01.326Z,33.47
2023-11-30T08:54:28.830Z,30.08
2023-11-30T08:56:56.264Z,38.42
2023-11-30T08:59:23.879Z,31.90
2023-11-30T09:01:51.690Z,40.45
2023-11-30T09:04:21.547Z,39.45
2023-11-30T09:06:51.643Z,32.30
2023-11-30T09:11:46.247Z,46.72
2023-11-30T09:14:13.724Z,54.15
2023-11-30T09:16:41.374Z,44.65
2023-11-30T09:19:08.813Z,36.15
2023-11-30T09:21:36.302Z,32.40
2023-11-30T09:24:05.846Z,58.92
2023-11-30T09:26:33.437Z,47.22
2023-11-30T09:29:01.070Z,61.70
2023-11-30T09:31:28.772Z,36.53
2023-11-30T09:33:56.346Z,40.80
2023-11-30T09:36:23.965Z,52.83
2023-11-30T09:38:51.855Z,47.15
2023-11-30T09:41:22.407Z,39.33
2023-11-30T09:43:51.980Z,47.22
2023-11-30T09:46:19.641Z,44.60
2023-11-30T09:48:49.966Z,31.92
2023-11-30T09:51:21.741Z,36.25
2023-11-30T09:53:52.137Z,48.10
2023-11-30T09:56:21.913Z,49.97
2023-11-30T09:58:49.468Z,53.30
2023-11-30T10:01:19.360Z,45.50
2023-11-30T10:03:46.850Z,22.83
2023-11-30T10:06:17.958Z,24.75
2023-11-30T10:08:45.661Z,14.73
2023-11-30T10:11:13.857Z,20.92
2023-11-30T10:13:41.423Z,11.32
2023-11-30T10:16:09.315Z,25.50
2023-11-30T10:18:37.039Z,28.73
2023-11-30T10:21:04.880Z,17.10
2023-11-30T10:23:35.141Z,24.73
2023-11-30T10:26:03.772Z,21.02
2023-11-30T10:28:31.497Z,38.67
2023-11-30T10:31:04.162Z,36.95
2023-11-30T10:33:36.850Z,40.10
2023-11-30T10:36:06.847Z,68.85
2023-11-30T10:38:37.220Z,55.05
2023-11-30T10:41:13.816Z,57.05
2023-11-30T10:43:48.078Z,38.03
2023-11-30T10:46:17.677Z,29.52
2023-11-30T10:48:45.203Z,51.67
2023-11-30T10:51:13.351Z,31.02
2023-11-30T10:53:47.264Z,48.90
2023-11-30T10:56:15.676Z,43.30
2023-11-30T10:58:46.217Z,39.53
2023-11-30T11:01:15.148Z,49.70
2023-11-30T11:03:46.687Z,58.03
2023-11-30T11:06:16.334Z,47.92
2023-11-30T11:09:09.056Z,57.30
2023-11-30T11:11:40.225Z,48.25
2023-11-30T11:14:07.741Z,41.85
2023-11-30T11:16:38.624Z,48.72
2023-11-30T11:19:06.717Z,59.28
2023-11-30T11:21:41.181Z,42.63
2023-11-30T11:24:09.564Z,49.67
2023-11-30T11:26:46.990Z,54.58
2023-11-30T11:29:24.215Z,47.75
2023-11-30T11:31:59.642Z,35.55
2023-11-30T11:34:27.204Z,41.42
2023-11-30T11:36:58.257Z,50.88
2023-11-30T11:39:28.137Z,52.13
2023-11-30T11:41:57.970Z,37.13
2023-11-30T11:44:26.198Z,48.40
2023-11-30T11:46:57.134Z,57.83
2023-11-30T11:49:24.899Z,54.88
2023-11-30T11:51:54.832Z,77.43
2023-11-30T11:54:27.765Z,56.83
2023-11-30T11:56:57.173Z,73.57
2023-11-30T11:59:28.655Z,51.65
2023-11-30T12:01:57.156Z,77.97
2023-11-30T12:04:38.208Z,66.72
2023-11-30T12:07:19.174Z,53.05
2023-11-30T12:09:58.505Z,74.97
2023-11-30T12:12:39.203Z,79.13
2023-11-30T12:15:07.139Z,44.67
2023-11-30T12:17:40.548Z,42.58
2023-11-30T12:20:09.743Z,50.55
2023-11-30T12:22:40.201Z,50.03
2023-11-30T12:25:13.917Z,54.13
2023-11-30T12:27:41.464Z,59.58
2023-11-30T12:30:10.208Z,62.30
2023-11-30T12:32:41.912Z,57.05
2023-11-30T12:35:09.927Z,58.35
2023-11-30T12:37:39.335Z,53.25
2023-11-30T12:40:11.939Z,52.50
2023-11-30T12:42:45.961Z,60.13
2023-11-30T12:45:14.459Z,59.30
2023-11-30T12:47:47.478Z,67.13
2023-11-30T12:50:17.897Z,60.85
2023-11-30T12:55:18.703Z,65.55
2023-11-30T12:57:47.191Z,62.80
2023-11-30T13:00:21.546Z,54.80
2023-11-30T13:02:49.973Z,58.78
2023-11-30T13:05:20.765Z,59.13
2023-11-30T13:07:53.812Z,56.33
2023-11-30T13:10:25.450Z,57.67
2023-11-30T13:12:53.353Z,66.22
2023-11-30T13:15:21.730Z,68.15
2023-11-30T13:17:50.387Z,72.07
2023-11-30T13:20:21.042Z,64.75
2023-11-30T13:22:58.737Z,51.90
2023-11-30T13:25:28.124Z,68.57
2023-11-30T13:27:58.304Z,64.85
2023-11-30T13:33:00.377Z,65.45
2023-11-30T13:35:32.942Z,81.95
2023-11-30T13:38:00.527Z,59.03
2023-11-30T13:40:28.299Z,77.60
2023-11-30T13:42:55.804Z,56.78
2023-11-30T13:45:29.697Z,59.72
2023-11-30T13:47:57.411Z,67.20
2023-11-30T13:50:35.027Z,86.72
2023-11-30T13:53:07.930Z,77.88
2023-11-30T13:55:37.806Z,87.13
2023-11-30T13:58:11.755Z,63.42
2023-11-30T14:00:43.795Z,71.28
2023-11-30T14:03:11.371Z,69.28
2023-11-30T14:05:38.980Z,62.00
2023-11-30T14:08:06.778Z,52.08
2023-11-30T14:10:34.784Z,71.88
2023-11-30T14:13:05.370Z,65.07
2023-11-30T14:15:33.518Z,75.93
2023-11-30T14:18:01.785Z,65.90
2023-11-30T14:20:29.902Z,66.13
2023-11-30T14:23:00.127Z,56.75
2023-11-30T14:25:30.193Z,67.18
2023-11-30T14:28:00.960Z,70.32
2023-11-30T14:30:32.247Z,77.43
2023-11-30T14:32:59.879Z,61.50
2023-11-30T14:35:27.503Z,73.50
2023-11-30T14:37:55.042Z,73.80
2023-11-30T14:40:26.400Z,91.00
2023-11-30T14:42:54.181Z,87.50
2023-11-30T14:45:21.791Z,82.78
2023-11-30T14:47:55.621Z,94.90
2023-11-30T14:50:25.803Z,103.25
2023-11-30T14:55:27.469Z,92.07
2023-11-30T14:57:55.422Z,75.68
2023-11-30T15:00:26.459Z,101.65
2023-11-30T15:02:54.123Z,71.80
2023-11-30T15:05:24.284Z,100.30
2023-11-30T15:07:54.628Z,52.63
2023-11-30T15:10:28.668Z,101.90
2023-11-30T15:12:56.181Z,57.40
2023-11-30T15:15:27.706Z,85.00
2023-11-30T15:17:58.722Z,74.50
2023-11-30T15:20:26.276Z,79.38
2023-11-30T15:22:56.984Z,76.70
2023-11-30T15:25:27.870Z,101.93
2023-11-30T15:27:57.643Z,75.07
2023-11-30T15:30:27.709Z,78.45
2023-11-30T15:32:55.407Z,74.80
2023-11-30T15:35:26.001Z,65.18
2023-11-30T15:37:55.953Z,69.05
2023-11-30T15:40:24.357Z,83.88
2023-11-30T15:42:54.510Z,82.63
2023-11-30T15:45:27.624Z,79.75
2023-11-30T15:47:58.409Z,73.55
2023-11-30T15:50:28.963Z,89.00
2023-11-30T15:52:56.491Z,63.75
2023-11-30T15:55:24.230Z,77.65
2023-11-30T15:57:52.030Z,65.18
2023-11-30T16:00:21.618Z,97.68
2023-11-30T16:02:52.272Z,76.80
2023-11-30T16:05:19.972Z,85.70
2023-11-30T16:07:51.740Z,63.67
2023-11-30T16:10:19.401Z,88.22
2023-11-30T16:12:48.688Z,51.03
2023-11-30T16:15:17.583Z,85.45
2023-11-30T16:17:47.606Z,88.95
2023-11-30T16:20:18.066Z,80.50
2023-11-30T16:22:46.759Z,64.65
2023-11-30T16:25:16.893Z,47.00
2023-11-30T16:30:12.791Z,82.95
2023-11-30T16:32:41.448Z,62.95
2023-11-30T16:35:09.386Z,55.00
2023-11-30T16:37:37.079Z,61.20
2023-11-30T16:40:05.992Z,69.13
2023-11-30T16:42:33.625Z,70.82
2023-11-30T16:45:02.223Z,76.82
2023-11-30T16:47:29.783Z,73.05
2023-11-30T16:49:57.407Z,80.10
2023-11-30T16:52:24.866Z,72.07
2023-11-30T16:54:53.120Z,72.13
2023-11-30T16:57:23.582Z,72.22
2023-11-30T16:59:53.309Z,81.88
2023-11-30T17:02:20.869Z,66.03
2023-11-30T17:04:51.519Z,75.22
2023-11-30T17:07:20.445Z,94.93
2023-11-30T17:09:49.902Z,60.83
2023-11-30T17:12:18.071Z,71.55
2023-11-30T17:14:45.585Z,52.90
2023-11-30T17:17:13.027Z,56.35
2023-11-30T17:19:40.505Z,50.60
2023-11-30T17:22:08.034Z,41.40
2023-11-30T17:24:38.346Z,69.32
2023-11-30T17:27:05.941Z,53.88
2023-11-30T17:29:38.886Z,41.40
2023-11-30T17:32:09.539Z,55.13
2023-11-30T17:34:37.457Z,57.67
2023-11-30T17:37:05.051Z,63.28
2023-11-30T17:39:32.521Z,58.38
2023-11-30T17:41:59.953Z,52.58
2023-11-30T17:44:28.398Z,56.38
2023-11-30T17:46:55.925Z,57.42
2023-11-30T17:49:24.176Z,62.60
2023-11-30T17:51:51.917Z,50.58
2023-11-30T17:54:19.608Z,58.88
2023-11-30T17:56:47.115Z,59.92
2023-11-30T17:59:14.659Z,69.82
2023-11-30T18:01:42.327Z,65.70
2023-11-30T18:04:09.949Z,61.28
2023-11-30T18:06:37.634Z,62.80
2023-11-30T18:09:05.413Z,68.20
2023-11-30T18:11:33.065Z,58.92
2023-11-30T18:14:00.531Z,75.72
2023-11-30T18:16:28.879Z,85.93
2023-11-30T18:18:56.491Z,64.22
2023-11-30T18:21:24.209Z,68.10
2023-11-30T18:23:51.683Z,48.00
2023-11-30T18:26:21.188Z,63.25
2023-11-30T18:28:48.695Z,55.85
2023-11-30T18:31:22.020Z,76.25
2023-11-30T18:33:50.806Z,77.75
2023-11-30T18:36:18.410Z,73.57
2023-11-30T18:38:50.724Z,74.38
2023-11-30T18:41:20.870Z,57.55
2023-11-30T18:43:50.169Z,67.20
2023-11-30T18:46:21.374Z,58.20
2023-11-30T18:48:49.001Z,50.20
2023-11-30T18:51:16.481Z,68.78
2023-11-30T18:53:44.027Z,63.80
2023-11-30T18:56:11.641Z,63.45
2023-11-30T18:58:42.722Z,66.10
2023-11-30T19:01:11.676Z,69.63
2023-11-30T19:03:39.465Z,56.95
2023-11-30T19:06:07.237Z,54.80
2023-11-30T19:08:34.934Z,60.78
2023-11-30T19:11:02.350Z,57.70
2023-11-30T19:13:29.770Z,54.00
2023-11-30T19:15:57.326Z,51.63
2023-11-30T19:18:24.888Z,60.33
2023-11-30T19:20:52.597Z,64.93
2023-11-30T19:23:20.084Z,58.88
2023-11-30T19:25:47.477Z,48.00
2023-11-30T19:28:15.114Z,62.10
2023-11-30T19:30:44.970Z,67.72
2023-11-30T19:33:12.576Z,62.60
2023-11-30T19:35:40.159Z,54.50
2023-11-30T19:38:07.648Z,70.82
2023-11-30T19:40:35.115Z,70.60
2023-11-30T19:43:03.601Z,69.68
2023-11-30T19:45:31.227Z,47.58
2023-11-30T19:48:00.047Z,51.88
2023-11-30T19:50:28.836Z,52.53
2023-11-30T19:52:56.278Z,67.07
2023-11-30T19:55:24.339Z,69.15
2023-11-30T19:57:51.868Z,77.18
2023-11-30T20:00:19.634Z,59.20
2023-11-30T20:02:47.269Z,57.08
2023-11-30T20:05:14.985Z,71.70
2023-11-30T20:07:45.456Z,69.68
2023-11-30T20:10:13.076Z,68.35
2023-11-30T20:12:43.049Z,44.10
2023-11-30T20:15:10.861Z,66.70
2023-11-30T20:17:38.926Z,67.53
2023-11-30T20:20:06.650Z,76.13
2023-11-30T20:22:34.188Z,70.55
2023-11-30T20:25:01.793Z,51.33
2023-11-30T20:27:29.261Z,71.57
2023-11-30T20:29:56.772Z,62.63
2023-11-30T20:32:25.563Z,70.85
2023-11-30T20:34:53.390Z,67.03
2023-11-30T20:37:23.439Z,46.13
2023-11-30T20:39:50.914Z,57.25
2023-11-30T20:42:18.459Z,52.60
2023-11-30T20:44:47.976Z,58.50
2023-11-30T20:47:16.511Z,53.22
2023-11-30T20:49:44.013Z,43.75
2023-11-30T20:52:14.208Z,50.30
2023-11-30T20:54:42.004Z,65.07
2023-11-30T20:57:09.816Z,55.20
2023-11-30T20:59:40.630Z,43.97
2023-11-30T21:02:09.591Z,34.88
2023-11-30T21:04:37.811Z,39.38
2023-11-30T21:07:05.563Z,41.17
2023-11-30T21:09:33.198Z,34.67
2023-11-30T21:12:00.765Z,39.85
2023-11-30T21:14:30.600Z,41.53
2023-11-30T21:16:58.161Z,42.90
2023-11-30T21:19:26.635Z,52.67
2023-11-30T21:21:54.183Z,34.85
2023-11-30T21:24:22.129Z,36.80
2023-11-30T21:26:49.729Z,40.63
2023-11-30T21:29:17.476Z,42.97
2023-11-30T21:31:44.947Z,45.50
2023-11-30T21:34:12.456Z,56.78
2023-11-30T21:36:43.624Z,54.15
2023-11-30T21:39:11.359Z,63.50
2023-11-30T21:41:38.900Z,61.05
2023-11-30T21:44:08.848Z,56.67
2023-11-30T21:46:40.503Z,56.22
2023-11-30T21:49:10.792Z,44.13
2023-11-30T21:51:38.577Z,57.90
2023-11-30T21:54:06.056Z,54.03
2023-11-30T21:56:33.779Z,64.07
2023-11-30T21:59:01.408Z,69.97
2023-11-30T22:01:29.149Z,49.72
2023-11-30T22:03:57.285Z,39.45
2023-11-30T22:06:27.275Z,42.90
2023-11-30T22:08:54.747Z,53.47
2023-11-30T22:11:22.249Z,49.13
2023-11-30T22:13:52.101Z,76.50
2023-11-30T22:16:26.545Z,60.85
2023-11-30T22:19:02.936Z,45.15
2023-11-30T22:21:31.114Z,53.88
2023-11-30T22:23:59.785Z,70.18
2023-11-30T22:26:27.743Z,68.45
2023-11-30T22:28:57.053Z,58.95
2023-11-30T22:31:25.025Z,41.65
2023-11-30T22:33:52.699Z,46.25
2023-11-30T22:36:23.290Z,51.10
2023-11-30T22:38:50.817Z,48.17
2023-11-30T22:41:18.301Z,36.97
2023-11-30T22:43:47.062Z,42.92
2023-11-30T22:46:18.483Z,65.70
2023-11-30T22:48:47.006Z,62.70
2023-11-30T22:51:14.614Z,58.33
2023-11-30T22:53:44.445Z,54.63
2023-11-30T22:56:19.129Z,57.72
2023-11-30T22:58:47.244Z,50.65
2023-11-30T23:01:18.219Z,56.33
2023-11-30T23:03:46.410Z,68.10
2023-11-30T23:06:14.853Z,54.25
2023-11-30T23:08:42.735Z,65.78
2023-11-30T23:11:10.723Z,56.70
2023-11-30T23:13:38.555Z,51.50
2023-11-30T23:16:06.326Z,65.90
2023-11-30T23:18:33.941Z,64.35
2023-11-30T23:21:01.581Z,61.08
2023-11-30T23:23:31.761Z,56.42
2023-11-30T23:28:28.723Z,54.50
2023-11-30T23:30:56.258Z,49.53
2023-11-30T23:33:23.849Z,54.40
2023-11-30T23:35:51.306Z,62.13
2023-11-30T23:38:21.453Z,52.88
2023-11-30T23:43:19.322Z,67.00
2023-11-30T23:45:46.836Z,56.53
2023-11-30T23:48:14.562Z,59.03
2023-11-30T23:50:42.241Z,47.30
2023-11-30T23:53:12.105Z,49.58
2023-11-30T23:55:41.870Z,57.72
2023-11-30T23:58:09.385Z,56.20
